createdAt,value
2023-03-26T00:00:41.216Z,75.9862
2023-03-26T00:01:43.439Z,75.2300
2023-03-26T00:02:45.659Z,76.3789
2023-03-26T00:03:47.770Z,75.8952
2023-03-26T00:04:49.935Z,75.5230
2023-03-26T00:05:52.352Z,76.5073
2023-03-26T00:06:54.729Z,76.1452
2023-03-26T00:07:56.906Z,75.8725
2023-03-26T00:08:59.056Z,75.8176
2023-03-26T00:10:01.439Z,75.6522
2023-03-26T00:12:05.660Z,75.5954
2023-03-26T00:13:07.779Z,76.0951
2023-03-26T00:14:09.979Z,75.1905
2023-03-26T00:15:12.068Z,75.9748
2023-03-26T00:16:14.264Z,75.7449
2023-03-26T00:17:16.452Z,75.8802
2023-03-26T00:18:18.612Z,74.8556
2023-03-26T00:19:20.787Z,74.1542
2023-03-26T00:21:25.023Z,75.0984
2023-03-26T00:22:27.232Z,74.7699
2023-03-26T00:23:29.385Z,76.0529
2023-03-26T00:24:31.547Z,76.5994
2023-03-26T00:25:33.730Z,76.9203
2023-03-26T00:27:37.906Z,74.3635
2023-03-26T00:28:40.134Z,76.6202
2023-03-26T00:29:42.240Z,77.1607
2023-03-26T00:30:44.421Z,75.3007
2023-03-26T00:31:46.791Z,74.8762
2023-03-26T00:32:53.327Z,74.8057
2023-03-26T00:33:52.684Z,75.6596
2023-03-26T00:34:54.805Z,76.3904
2023-03-26T00:35:57.126Z,74.5461
2023-03-26T00:36:59.475Z,73.8842
2023-03-26T00:38:01.655Z,74.7962
2023-03-26T00:39:03.813Z,75.2274
2023-03-26T00:40:05.995Z,75.1090
2023-03-26T00:41:08.181Z,73.9805
2023-03-26T00:42:10.390Z,74.4117
2023-03-26T00:43:12.547Z,73.6389
2023-03-26T00:44:14.711Z,74.5513
2023-03-26T00:45:16.885Z,73.8785
2023-03-26T00:46:19.128Z,76.5759
2023-03-26T00:47:21.304Z,77.1837
2023-03-26T00:48:31.576Z,76.4032
2023-03-26T00:49:27.221Z,75.5088
2023-03-26T00:50:29.376Z,75.6897
2023-03-26T00:51:31.574Z,76.2917
2023-03-26T00:52:33.769Z,77.6313
2023-03-26T00:54:38.098Z,76.9647
2023-03-26T00:55:40.296Z,75.7522
2023-03-26T00:56:42.425Z,75.6916
2023-03-26T00:57:44.559Z,76.6586
2023-03-26T00:58:46.697Z,77.3507
2023-03-26T00:59:48.877Z,78.1286
2023-03-26T01:00:50.984Z,78.2112
2023-03-26T01:02:55.270Z,77.5578
2023-03-26T01:04:07.601Z,77.4339
2023-03-26T01:05:01.131Z,76.5806
2023-03-26T01:06:03.325Z,77.4960
2023-03-26T01:07:05.476Z,78.3368
2023-03-26T01:08:07.661Z,78.2392
2023-03-26T01:09:09.827Z,77.3475
2023-03-26T01:11:14.207Z,78.5696
2023-03-26T01:12:16.616Z,78.8298
2023-03-26T01:13:18.753Z,78.0912
2023-03-26T01:14:20.947Z,78.7201
2023-03-26T01:15:23.103Z,78.8466
2023-03-26T01:16:25.306Z,77.6537
2023-03-26T01:17:27.469Z,79.2429
2023-03-26T01:18:29.705Z,77.9669
2023-03-26T01:19:31.838Z,78.7243
2023-03-26T01:20:33.961Z,78.6686
2023-03-26T01:21:36.103Z,79.5139
2023-03-26T01:22:38.275Z,79.4568
2023-03-26T01:23:40.352Z,79.1171
2023-03-26T01:24:42.564Z,78.9493
2023-03-26T01:25:44.703Z,79.8914
2023-03-26T01:26:46.896Z,79.4755
2023-03-26T01:27:49.003Z,80.1924
2023-03-26T01:28:51.223Z,79.4515
2023-03-26T01:29:53.336Z,78.3971
2023-03-26T01:30:55.529Z,79.3559
2023-03-26T01:31:57.664Z,79.5252
2023-03-26T01:32:59.912Z,79.4424
2023-03-26T01:34:02.090Z,80.0622
2023-03-26T01:35:04.268Z,79.0111
2023-03-26T01:36:06.449Z,81.0216
2023-03-26T01:37:08.724Z,79.8289
2023-03-26T01:38:11.067Z,79.5562
2023-03-26T01:39:13.729Z,80.3854
2023-03-26T01:40:15.884Z,80.0970
2023-03-26T01:41:18.114Z,80.1680
2023-03-26T01:42:20.311Z,79.4667
2023-03-26T01:43:22.517Z,80.1015
2023-03-26T01:44:24.691Z,79.5503
2023-03-26T01:45:26.914Z,80.1319
2023-03-26T01:46:29.200Z,80.5577
2023-03-26T01:47:31.362Z,80.9104
2023-03-26T01:48:33.495Z,82.2345
2023-03-26T01:49:35.734Z,82.4768
2023-03-26T01:50:37.927Z,80.9958
2023-03-26T01:51:40.273Z,80.5832
2023-03-26T01:52:42.484Z,82.1491
2023-03-26T01:53:44.665Z,81.1143
2023-03-26T01:54:46.894Z,82.1436
2023-03-26T01:55:49.046Z,81.2134
2023-03-26T01:56:51.297Z,81.6764
2023-03-26T01:57:53.460Z,81.2209
2023-03-26T01:58:55.659Z,81.4545
2023-03-26T01:59:57.882Z,82.5995
2023-03-26T02:01:00.038Z,81.9623
2023-03-26T02:02:02.331Z,83.6740
2023-03-26T02:03:04.564Z,83.1844
2023-03-26T02:04:06.864Z,82.8853
2023-03-26T02:06:11.078Z,83.4583
2023-03-26T02:07:13.267Z,83.0338
2023-03-26T02:11:23.220Z,82.5154
2023-03-26T02:13:27.744Z,81.4757
2023-03-26T02:14:29.949Z,80.8873
2023-03-26T02:15:32.131Z,81.4578
2023-03-26T02:16:34.374Z,82.1154
2023-03-26T02:17:36.623Z,81.8888
2023-03-26T02:18:38.888Z,81.4023
2023-03-26T02:20:43.071Z,83.1015
2023-03-26T02:21:45.252Z,82.3753
2023-03-26T02:22:47.480Z,81.8349
2023-03-26T02:23:49.694Z,82.6630
2023-03-26T02:24:51.878Z,82.6762
2023-03-26T02:25:54.154Z,84.2259
2023-03-26T02:26:56.711Z,83.8104
2023-03-26T02:27:58.919Z,83.9408
2023-03-26T02:29:01.174Z,83.0501
2023-03-26T02:30:03.394Z,83.9787
2023-03-26T02:31:05.632Z,83.0749
2023-03-26T02:32:07.823Z,82.9849
2023-03-26T02:33:10.072Z,84.4123
2023-03-26T02:34:12.256Z,85.0706
2023-03-26T02:35:14.551Z,83.8907
2023-03-26T02:36:16.883Z,83.8084
2023-03-26T02:37:19.139Z,83.6903
2023-03-26T02:38:21.364Z,83.2073
2023-03-26T02:39:23.812Z,84.5165
2023-03-26T02:40:25.989Z,84.2382
2023-03-26T02:41:28.219Z,84.1513
2023-03-26T02:42:30.405Z,83.6252
2023-03-26T02:43:32.603Z,82.7810
2023-03-26T02:45:36.954Z,83.3136
2023-03-26T02:46:39.182Z,82.6104
2023-03-26T02:47:41.425Z,81.9536
2023-03-26T02:48:43.623Z,82.2035
2023-03-26T02:49:45.896Z,81.9357
2023-03-26T02:50:48.052Z,81.7230
2023-03-26T02:51:50.275Z,81.4435
2023-03-26T02:52:52.433Z,80.6180
2023-03-26T02:53:54.667Z,81.4989
2023-03-26T02:54:56.864Z,81.9415
2023-03-26T02:57:01.176Z,81.1428
2023-03-26T02:58:03.390Z,81.9617
2023-03-26T02:59:05.630Z,81.1758
2023-03-26T03:00:07.867Z,82.0221
2023-03-26T03:01:10.090Z,81.1867
2023-03-26T03:02:12.308Z,81.6984
2023-03-26T03:03:14.460Z,82.1854
2023-03-26T03:04:16.731Z,82.0191
2023-03-26T03:05:18.965Z,82.9092
2023-03-26T03:06:21.133Z,81.7326
2023-03-26T03:07:23.396Z,81.2685
2023-03-26T03:08:25.623Z,83.1743
2023-03-26T03:09:27.791Z,82.3154
2023-03-26T03:10:29.940Z,82.7053
2023-03-26T03:11:32.187Z,82.4131
2023-03-26T03:12:34.389Z,82.8723
2023-03-26T03:13:36.568Z,84.3203
2023-03-26T03:14:38.745Z,83.7133
2023-03-26T03:15:40.930Z,83.2174
2023-03-26T03:16:43.158Z,83.8448
2023-03-26T03:17:45.423Z,83.8933
2023-03-26T03:18:47.595Z,85.4494
2023-03-26T03:19:49.750Z,86.8407
2023-03-26T03:20:51.986Z,85.6667
2023-03-26T03:21:54.163Z,86.4012
2023-03-26T03:22:56.466Z,86.4521
2023-03-26T03:24:00.071Z,88.4317
2023-03-26T03:25:02.712Z,87.0149
2023-03-26T03:26:04.941Z,87.6481
2023-03-26T03:27:07.127Z,86.4917
2023-03-26T03:28:09.274Z,86.7653
2023-03-26T03:29:11.503Z,87.7080
2023-03-26T03:30:13.735Z,87.4182
2023-03-26T03:31:15.936Z,86.5496
2023-03-26T03:32:18.132Z,86.2749
2023-03-26T03:33:20.331Z,86.4511
2023-03-26T03:34:22.517Z,87.2222
2023-03-26T03:35:24.805Z,85.7981
2023-03-26T03:36:27.051Z,86.3076
2023-03-26T03:37:29.221Z,87.1831
2023-03-26T03:38:31.422Z,86.5195
2023-03-26T03:39:33.675Z,85.1029
2023-03-26T03:40:35.856Z,84.8660
2023-03-26T03:41:38.069Z,86.0255
2023-03-26T03:42:40.310Z,87.8268
2023-03-26T03:44:44.702Z,89.0511
2023-03-26T03:45:46.956Z,89.4129
2023-03-26T03:46:49.200Z,88.9823
2023-03-26T03:47:51.406Z,88.9339
2023-03-26T03:48:53.580Z,89.9637
2023-03-26T03:49:55.855Z,88.4083
2023-03-26T03:50:58.112Z,89.7391
2023-03-26T03:52:00.370Z,90.8342
2023-03-26T03:53:02.577Z,89.4274
2023-03-26T03:54:04.797Z,88.9366
2023-03-26T03:55:06.994Z,87.5979
2023-03-26T03:56:09.155Z,88.0234
2023-03-26T03:57:11.502Z,88.5874
2023-03-26T03:58:13.666Z,87.4482
2023-03-26T03:59:15.863Z,87.1697
2023-03-26T04:00:18.179Z,86.1739
2023-03-26T04:01:20.350Z,85.4672
2023-03-26T04:02:22.618Z,86.9445
2023-03-26T04:03:33.489Z,86.0573
2023-03-26T04:04:28.516Z,86.0246
2023-03-26T04:05:30.702Z,86.6818
2023-03-26T04:06:32.893Z,86.9192
2023-03-26T04:07:35.063Z,86.4903
2023-03-26T04:08:37.275Z,86.1496
2023-03-26T04:09:39.503Z,85.4766
2023-03-26T04:13:47.857Z,85.0034
2023-03-26T04:14:50.076Z,85.9234
2023-03-26T04:15:52.425Z,88.1393
2023-03-26T04:17:56.878Z,86.9373
2023-03-26T04:18:59.114Z,85.4552
2023-03-26T04:20:01.293Z,86.9278
2023-03-26T04:21:03.500Z,86.1415
2023-03-26T04:22:05.699Z,87.3981
2023-03-26T04:23:07.916Z,86.2599
2023-03-26T04:24:10.122Z,87.1144
2023-03-26T04:25:12.260Z,87.4201
2023-03-26T04:26:14.515Z,87.2251
2023-03-26T04:27:16.653Z,88.1428
2023-03-26T04:28:18.887Z,85.8380
2023-03-26T04:29:21.082Z,86.6685
2023-03-26T04:30:23.285Z,87.0452
2023-03-26T04:31:25.446Z,85.6100
2023-03-26T04:32:27.689Z,83.5646
2023-03-26T04:33:29.837Z,83.2262
2023-03-26T04:35:34.147Z,84.6074
2023-03-26T04:36:36.281Z,85.0258
2023-03-26T04:37:38.485Z,85.0896
2023-03-26T04:38:40.700Z,85.8591
2023-03-26T04:39:42.863Z,85.1650
2023-03-26T04:40:45.101Z,85.3331
2023-03-26T04:41:47.358Z,84.9704
2023-03-26T04:42:49.606Z,84.3620
2023-03-26T04:44:53.842Z,87.2383
2023-03-26T04:45:56.125Z,85.9939
2023-03-26T04:46:58.635Z,84.3557
2023-03-26T04:48:00.881Z,84.6940
2023-03-26T04:49:03.184Z,84.6050
2023-03-26T04:50:05.404Z,85.7043
2023-03-26T04:51:07.658Z,85.5074
2023-03-26T04:52:09.865Z,84.5449
2023-03-26T04:53:12.033Z,85.1205
2023-03-26T04:54:14.264Z,85.6563
2023-03-26T04:56:18.509Z,86.2724
2023-03-26T04:57:20.686Z,85.1552
2023-03-26T04:58:22.873Z,84.9110
2023-03-26T04:59:25.081Z,85.3476
2023-03-26T05:00:27.269Z,85.6194
2023-03-26T05:01:29.533Z,85.6858
2023-03-26T05:02:31.830Z,85.1677
2023-03-26T05:03:34.050Z,85.9438
2023-03-26T05:04:36.274Z,86.2292
2023-03-26T05:05:38.492Z,85.0264
2023-03-26T05:06:40.675Z,85.3669
2023-03-26T05:07:42.906Z,87.1964
2023-03-26T05:08:45.079Z,85.5129
2023-03-26T05:09:47.308Z,87.1163
2023-03-26T05:10:49.460Z,88.1470
2023-03-26T05:12:53.686Z,86.1641
2023-03-26T05:13:55.892Z,86.1793
2023-03-26T05:14:58.099Z,87.4203
2023-03-26T05:16:00.282Z,87.1189
2023-03-26T05:17:02.508Z,86.8257
2023-03-26T05:18:04.722Z,85.3962
2023-03-26T05:21:11.074Z,86.1185
2023-03-26T05:22:13.273Z,85.3313
2023-03-26T05:23:15.518Z,87.6864
2023-03-26T05:24:17.631Z,85.9457
2023-03-26T05:25:19.900Z,85.3999
2023-03-26T05:26:22.148Z,84.9232
2023-03-26T05:27:24.327Z,84.8959
2023-03-26T05:28:26.546Z,85.9030
2023-03-26T05:29:28.799Z,85.9227
2023-03-26T05:30:30.994Z,85.8932
2023-03-26T05:31:33.182Z,87.7194
2023-03-26T05:32:35.392Z,85.8276
2023-03-26T05:33:37.751Z,87.0200
2023-03-26T05:34:40.016Z,87.5184
2023-03-26T05:35:42.281Z,87.1037
2023-03-26T05:36:44.442Z,85.2893
2023-03-26T05:37:46.653Z,84.0067
2023-03-26T05:38:48.819Z,84.3991
2023-03-26T05:39:51.056Z,85.2500
2023-03-26T05:40:53.595Z,87.5010
2023-03-26T05:41:55.994Z,86.0858
2023-03-26T05:44:00.224Z,88.4241
2023-03-26T05:45:02.445Z,88.8561
2023-03-26T05:46:04.647Z,88.9184
2023-03-26T05:47:06.872Z,89.0078
2023-03-26T05:48:09.051Z,90.0607
2023-03-26T05:49:11.266Z,89.5351
2023-03-26T05:50:13.431Z,90.4493
2023-03-26T05:51:15.701Z,91.6638
2023-03-26T05:52:17.939Z,91.8697
2023-03-26T05:54:22.261Z,93.7084
2023-03-26T05:55:24.508Z,92.6398
2023-03-26T05:57:28.892Z,93.0651
2023-03-26T05:58:31.139Z,92.8210
2023-03-26T05:59:33.349Z,91.6558
2023-03-26T06:00:35.509Z,93.8719
2023-03-26T06:01:37.711Z,94.4588
2023-03-26T06:02:39.911Z,94.6845
2023-03-26T06:03:42.168Z,94.3290
2023-03-26T06:04:44.393Z,95.1974
2023-03-26T06:05:46.623Z,95.7500
2023-03-26T06:06:48.787Z,96.5429
2023-03-26T06:07:51.033Z,96.6279
2023-03-26T06:09:01.395Z,95.6034
2023-03-26T06:09:56.867Z,96.5718
2023-03-26T06:10:59.043Z,96.6707
2023-03-26T06:12:01.220Z,96.5857
2023-03-26T06:13:03.490Z,96.3996
2023-03-26T06:14:05.709Z,96.2438
2023-03-26T06:15:07.860Z,96.4936
2023-03-26T06:16:10.134Z,96.4390
2023-03-26T06:17:13.746Z,94.6846
2023-03-26T06:18:15.984Z,94.8754
2023-03-26T06:19:18.122Z,92.8752
2023-03-26T06:20:20.341Z,93.5839
2023-03-26T06:21:22.611Z,92.6927
2023-03-26T06:22:24.839Z,93.2523
2023-03-26T06:23:27.019Z,94.0805
2023-03-26T06:24:29.161Z,94.6017
2023-03-26T06:25:31.355Z,94.6843
2023-03-26T06:26:33.563Z,93.5333
2023-03-26T06:27:35.763Z,92.0825
2023-03-26T06:28:37.935Z,93.8756
2023-03-26T06:29:40.150Z,94.8532
2023-03-26T06:30:42.339Z,92.7498
2023-03-26T06:31:44.563Z,91.9417
2023-03-26T06:32:46.792Z,91.9407
2023-03-26T06:33:48.999Z,94.1812
2023-03-26T06:34:51.234Z,95.1385
2023-03-26T06:35:53.432Z,95.4930
2023-03-26T06:36:55.625Z,95.5797
2023-03-26T06:37:57.803Z,96.0481
2023-03-26T06:40:02.012Z,94.7721
2023-03-26T06:41:04.238Z,95.4087
2023-03-26T06:42:06.452Z,94.9433
2023-03-26T06:43:10.941Z,94.7281
2023-03-26T06:44:09.093Z,95.8118
2023-03-26T06:45:11.312Z,95.8346
2023-03-26T06:46:13.552Z,96.0272
2023-03-26T06:47:15.787Z,95.3105
2023-03-26T06:48:18.019Z,96.3314
2023-03-26T06:49:20.180Z,96.2817
2023-03-26T06:50:22.452Z,96.4921
2023-03-26T06:51:24.642Z,96.2075
2023-03-26T06:52:26.873Z,94.8731
2023-03-26T06:53:29.024Z,96.0613
2023-03-26T06:54:31.288Z,94.5377
2023-03-26T06:55:33.557Z,94.8429
2023-03-26T06:56:35.729Z,95.2781
2023-03-26T06:57:37.964Z,94.8200
2023-03-26T06:58:40.233Z,95.2874
2023-03-26T06:59:42.412Z,95.5560
2023-03-26T07:00:44.731Z,96.0198
2023-03-26T07:01:46.924Z,96.8229
2023-03-26T07:02:49.128Z,95.9128
2023-03-26T07:03:51.333Z,96.2141
2023-03-26T07:04:53.522Z,96.5304
2023-03-26T07:05:55.745Z,97.1368
2023-03-26T07:06:57.970Z,96.1874
2023-03-26T07:08:00.160Z,92.3290
2023-03-26T07:10:04.417Z,89.7060
2023-03-26T07:11:06.681Z,93.8269
2023-03-26T07:12:08.863Z,90.9891
2023-03-26T07:13:11.157Z,88.1037
2023-03-26T07:14:13.383Z,88.8434
2023-03-26T07:15:15.577Z,87.1846
2023-03-26T07:16:17.789Z,86.2911
2023-03-26T07:17:19.962Z,87.3596
2023-03-26T07:18:22.199Z,87.2481
2023-03-26T07:19:24.337Z,84.0234
2023-03-26T07:21:28.608Z,87.1978
2023-03-26T07:22:30.809Z,87.4829
2023-03-26T07:23:33.169Z,87.1193
2023-03-26T07:24:35.373Z,86.5718
2023-03-26T07:25:37.606Z,86.7875
2023-03-26T07:26:39.792Z,86.5777
2023-03-26T07:27:42.021Z,85.5516
2023-03-26T07:28:44.230Z,85.8530
2023-03-26T07:29:47.949Z,87.3153
2023-03-26T07:30:50.088Z,87.7840
2023-03-26T07:31:52.530Z,87.9838
2023-03-26T07:32:54.775Z,88.4734
2023-03-26T07:33:56.957Z,88.2878
2023-03-26T07:34:59.190Z,88.7785
2023-03-26T07:36:01.370Z,89.6147
2023-03-26T07:37:03.637Z,89.6300
2023-03-26T07:38:05.853Z,89.9941
2023-03-26T07:39:08.012Z,89.1436
2023-03-26T07:40:10.261Z,88.7264
2023-03-26T07:42:14.513Z,88.3066
2023-03-26T07:43:16.668Z,88.2615
2023-03-26T07:44:18.877Z,88.9266
2023-03-26T07:45:21.082Z,91.1432
2023-03-26T07:46:23.307Z,89.3409
2023-03-26T07:48:27.654Z,87.2548
2023-03-26T07:49:29.868Z,88.1898
2023-03-26T07:50:32.077Z,88.6356
2023-03-26T07:51:34.272Z,88.2955
2023-03-26T07:52:36.499Z,86.9240
2023-03-26T07:53:38.721Z,87.4182
2023-03-26T07:54:41.026Z,87.8232
2023-03-26T07:55:43.223Z,88.1474
2023-03-26T07:56:45.558Z,87.8767
2023-03-26T07:57:47.771Z,87.6941
2023-03-26T07:58:49.912Z,87.8267
2023-03-26T08:02:58.330Z,90.5556
2023-03-26T08:05:02.756Z,89.1863
2023-03-26T08:06:05.176Z,89.0542
2023-03-26T08:07:07.343Z,88.7511
2023-03-26T08:08:09.558Z,89.4535
2023-03-26T08:09:11.742Z,91.2883
2023-03-26T08:10:13.932Z,91.1671
2023-03-26T08:12:18.130Z,91.5707
2023-03-26T08:13:20.370Z,91.2863
2023-03-26T08:14:22.572Z,91.1861
2023-03-26T08:15:24.750Z,90.8776
2023-03-26T08:17:30.647Z,91.2822
2023-03-26T08:18:29.226Z,91.2608
2023-03-26T08:19:31.453Z,90.6741
2023-03-26T08:20:33.607Z,90.2215
2023-03-26T08:21:35.837Z,90.6699
2023-03-26T08:22:37.959Z,90.9748
2023-03-26T08:23:50.371Z,90.8114
2023-03-26T08:24:43.833Z,90.9811
2023-03-26T08:25:46.061Z,91.2821
2023-03-26T08:26:48.220Z,92.0411
2023-03-26T08:27:50.448Z,91.8264
2023-03-26T08:28:52.581Z,91.3771
2023-03-26T08:29:54.761Z,92.2021
2023-03-26T08:30:57.317Z,92.8180
2023-03-26T08:32:00.024Z,93.0036
2023-03-26T08:34:04.215Z,91.8635
2023-03-26T08:35:06.421Z,92.5162
2023-03-26T08:37:10.696Z,93.4640
2023-03-26T08:38:12.889Z,92.0750
2023-03-26T08:39:15.009Z,91.8008
2023-03-26T08:41:19.229Z,92.2365
2023-03-26T08:43:23.505Z,91.7379
2023-03-26T08:44:25.703Z,91.6504
2023-03-26T08:45:27.976Z,91.3473
2023-03-26T08:46:30.159Z,91.0188
2023-03-26T08:47:32.329Z,91.2880
2023-03-26T08:48:34.625Z,91.0334
2023-03-26T08:49:36.823Z,91.6702
2023-03-26T08:50:38.977Z,90.6882
2023-03-26T08:51:41.103Z,91.0000
2023-03-26T08:52:43.332Z,91.6597
2023-03-26T08:53:45.467Z,90.8213
2023-03-26T08:54:47.695Z,90.4196
2023-03-26T08:55:49.832Z,91.5294
2023-03-26T08:57:54.074Z,90.9843
2023-03-26T08:58:56.286Z,91.0373
2023-03-26T08:59:59.278Z,90.4293
2023-03-26T09:00:58.489Z,90.2761
2023-03-26T09:02:00.735Z,91.0715
2023-03-26T09:03:02.900Z,90.1527
2023-03-26T09:04:05.108Z,89.9685
2023-03-26T09:05:07.405Z,90.7980
2023-03-26T09:06:09.515Z,92.1817
2023-03-26T09:07:11.738Z,93.0458
2023-03-26T09:09:19.153Z,92.4117
2023-03-26T09:10:17.419Z,93.0480
2023-03-26T09:11:19.627Z,92.1198
2023-03-26T09:12:22.842Z,91.8327
2023-03-26T09:13:23.208Z,92.8341
2023-03-26T09:14:25.373Z,91.9246
2023-03-26T09:15:27.534Z,90.5110
2023-03-26T09:16:29.762Z,90.7023
2023-03-26T09:18:33.959Z,87.8302
2023-03-26T09:19:36.142Z,89.8982
2023-03-26T09:20:38.422Z,90.6138
2023-03-26T09:22:42.683Z,90.5268
2023-03-26T09:23:44.865Z,89.7294
2023-03-26T09:25:49.065Z,89.1553
2023-03-26T09:26:51.277Z,87.9371
2023-03-26T09:27:53.441Z,89.1961
2023-03-26T09:28:55.613Z,89.1895
2023-03-26T09:29:57.772Z,87.6257
2023-03-26T09:30:59.976Z,86.9430
2023-03-26T09:32:02.133Z,87.0944
2023-03-26T09:33:04.324Z,87.1229
2023-03-26T09:34:06.504Z,88.0538
2023-03-26T09:35:08.648Z,88.5248
2023-03-26T09:36:11.225Z,87.9523
2023-03-26T09:37:13.442Z,87.7993
2023-03-26T09:38:15.632Z,87.8340
2023-03-26T09:39:17.802Z,87.7472
2023-03-26T09:40:19.990Z,87.1039
2023-03-26T09:41:22.200Z,87.0493
2023-03-26T09:42:24.394Z,86.7654
2023-03-26T09:44:28.670Z,85.7583
2023-03-26T09:45:30.948Z,86.1098
2023-03-26T09:47:35.182Z,86.2133
2023-03-26T09:48:37.413Z,86.5255
2023-03-26T09:49:39.557Z,85.8299
2023-03-26T09:50:41.778Z,85.3239
2023-03-26T09:51:44.038Z,85.3936
2023-03-26T09:52:46.196Z,84.4221
2023-03-26T09:53:48.355Z,84.7488
2023-03-26T09:54:50.585Z,84.9815
2023-03-26T09:56:54.876Z,83.9465
2023-03-26T09:57:56.994Z,82.5108
2023-03-26T09:58:59.193Z,80.7125
2023-03-26T10:00:01.367Z,80.8909
2023-03-26T10:01:03.636Z,81.8357
2023-03-26T10:02:05.894Z,82.9887
2023-03-26T10:03:08.148Z,82.2180
2023-03-26T10:04:10.373Z,82.4063
2023-03-26T10:05:12.597Z,83.1859
2023-03-26T10:06:14.856Z,82.5126
2023-03-26T10:07:17.020Z,81.4185
2023-03-26T10:08:19.287Z,82.3304
2023-03-26T10:09:21.439Z,82.8264
2023-03-26T10:10:23.654Z,82.5875
2023-03-26T10:11:25.814Z,82.2046
2023-03-26T10:12:28.206Z,82.3200
2023-03-26T10:13:30.497Z,82.3525
2023-03-26T10:14:32.658Z,82.5528
2023-03-26T10:15:34.961Z,81.4857
2023-03-26T10:16:37.301Z,81.2851
2023-03-26T10:17:39.569Z,80.4338
2023-03-26T10:18:41.713Z,81.4277
2023-03-26T10:19:44.236Z,81.1380
2023-03-26T10:20:46.527Z,79.7312
2023-03-26T10:21:48.718Z,79.4034
2023-03-26T10:22:50.977Z,79.6392
2023-03-26T10:23:53.120Z,79.2696
2023-03-26T10:24:55.363Z,79.8192
2023-03-26T10:25:57.673Z,80.3304
2023-03-26T10:27:09.113Z,80.2087
2023-03-26T10:28:03.589Z,79.8939
2023-03-26T10:29:05.824Z,80.1408
2023-03-26T10:30:08.014Z,79.8166
2023-03-26T10:31:10.179Z,79.6302
2023-03-26T10:32:12.452Z,78.8072
2023-03-26T10:33:14.891Z,79.4509
2023-03-26T10:34:28.659Z,79.4768
2023-03-26T10:35:20.833Z,79.3017
2023-03-26T10:37:25.153Z,78.5989
2023-03-26T10:38:27.385Z,78.6861
2023-03-26T10:39:37.216Z,78.9396
2023-03-26T10:40:33.265Z,79.0048
2023-03-26T10:41:35.498Z,79.6065
2023-03-26T10:42:37.641Z,79.7118
2023-03-26T10:43:39.829Z,79.5133
2023-03-26T10:44:42.048Z,79.7273
2023-03-26T10:45:44.340Z,79.6667
2023-03-26T10:46:46.715Z,79.4798
2023-03-26T10:47:49.129Z,80.3298
2023-03-26T10:49:53.310Z,79.4299
2023-03-26T10:50:55.785Z,77.9506
2023-03-26T10:51:58.872Z,77.2179
2023-03-26T10:53:01.083Z,77.1427
2023-03-26T10:54:03.500Z,77.0417
2023-03-26T10:55:05.695Z,78.4694
2023-03-26T10:56:07.948Z,78.6217
2023-03-26T10:57:10.317Z,78.4425
2023-03-26T10:58:12.494Z,78.1185
2023-03-26T10:59:15.057Z,77.9100
2023-03-26T11:00:17.516Z,76.5206
2023-03-26T11:01:19.790Z,76.2455
2023-03-26T11:02:29.299Z,76.9155
2023-03-26T11:03:25.937Z,77.1164
2023-03-26T11:04:28.082Z,76.9031
2023-03-26T11:05:30.366Z,76.9460
2023-03-26T11:06:32.629Z,77.3738
2023-03-26T11:07:34.821Z,77.4116
2023-03-26T11:08:36.950Z,76.3463
2023-03-26T11:09:39.207Z,75.3271
2023-03-26T11:10:41.411Z,74.6027
2023-03-26T11:11:43.932Z,75.3231
2023-03-26T11:12:46.180Z,75.5749
2023-03-26T11:13:48.361Z,76.0014
2023-03-26T11:14:50.628Z,76.6606
2023-03-26T11:15:53.046Z,75.8117
2023-03-26T11:16:55.387Z,74.2666
2023-03-26T11:17:57.614Z,73.4090
2023-03-26T11:18:59.754Z,72.7413
2023-03-26T11:20:01.953Z,72.6935
2023-03-26T11:21:19.106Z,72.4237
2023-03-26T11:22:07.964Z,73.7714
2023-03-26T11:23:10.100Z,71.3287
2023-03-26T11:24:13.264Z,71.7037
2023-03-26T11:25:15.418Z,71.5873
2023-03-26T11:26:17.690Z,72.4402
2023-03-26T11:27:21.323Z,71.3723
2023-03-26T11:28:21.140Z,71.2968
2023-03-26T11:29:32.297Z,71.9808
2023-03-26T11:30:26.917Z,71.6473
2023-03-26T11:31:29.243Z,72.0527
2023-03-26T11:32:31.513Z,71.7017
2023-03-26T11:33:33.619Z,71.8914
2023-03-26T11:34:35.822Z,71.1098
2023-03-26T11:35:40.625Z,71.7197
2023-03-26T11:36:39.150Z,69.7796
2023-03-26T11:37:41.324Z,70.8622
2023-03-26T11:39:45.581Z,71.5957
2023-03-26T11:40:47.680Z,70.6037
2023-03-26T11:41:49.880Z,71.0339
2023-03-26T11:42:52.045Z,70.4210
2023-03-26T11:43:54.368Z,69.7433
2023-03-26T11:44:56.794Z,69.9086
2023-03-26T11:45:59.131Z,69.1946
2023-03-26T11:47:01.370Z,69.9837
2023-03-26T11:48:03.571Z,69.8320
2023-03-26T11:49:05.719Z,70.3354
2023-03-26T11:52:12.000Z,69.5600
2023-03-26T11:53:14.183Z,69.2460
2023-03-26T11:54:16.405Z,69.2593
2023-03-26T11:55:18.608Z,69.1914
2023-03-26T11:56:20.837Z,68.5061
2023-03-26T11:57:23.067Z,68.8436
2023-03-26T11:58:25.261Z,66.6540
2023-03-26T11:59:27.421Z,67.3701
2023-03-26T12:01:31.792Z,66.7872
2023-03-26T12:02:34.156Z,66.5648
2023-03-26T12:04:38.524Z,65.8054
2023-03-26T12:05:40.692Z,65.4928
2023-03-26T12:06:42.794Z,67.4258
2023-03-26T12:07:44.913Z,66.9724
2023-03-26T12:08:47.093Z,66.7926
2023-03-26T12:09:49.246Z,67.4169
2023-03-26T12:10:51.427Z,66.8246
2023-03-26T12:11:53.635Z,67.4568
2023-03-26T12:12:55.822Z,67.4330
2023-03-26T12:13:58.046Z,65.4700
2023-03-26T12:15:00.204Z,66.0379
2023-03-26T12:16:02.357Z,66.3860
2023-03-26T12:17:04.623Z,66.0360
2023-03-26T12:18:27.757Z,65.2383
2023-03-26T12:19:07.848Z,63.5562
2023-03-26T12:20:09.962Z,63.1844
2023-03-26T12:21:12.248Z,63.7057
2023-03-26T12:22:14.409Z,63.8122
2023-03-26T12:23:16.707Z,63.5598
2023-03-26T12:24:18.966Z,64.1316
2023-03-26T12:25:21.181Z,64.2985
2023-03-26T12:26:23.357Z,64.7922
2023-03-26T12:27:25.511Z,64.3208
2023-03-26T12:28:27.660Z,64.1818
2023-03-26T12:29:29.807Z,64.8998
2023-03-26T12:30:32.068Z,65.7794
2023-03-26T12:31:34.270Z,65.5063
2023-03-26T12:32:45.868Z,68.3687
2023-03-26T12:33:40.220Z,71.9243
2023-03-26T12:34:42.434Z,72.4864
2023-03-26T12:35:44.695Z,73.6524
2023-03-26T12:36:46.950Z,72.3537
2023-03-26T12:39:16.731Z,70.3256
2023-03-26T12:40:09.271Z,70.8218
2023-03-26T12:40:58.524Z,69.4690
2023-03-26T12:47:56.670Z,67.1669
2023-03-26T12:47:58.583Z,66.8961
2023-03-26T12:48:16.177Z,66.8373
2023-03-26T12:49:18.934Z,65.9906
2023-03-26T12:50:34.436Z,63.6298
2023-03-26T12:51:24.900Z,61.0150
2023-03-26T12:52:27.053Z,59.5350
2023-03-26T12:54:31.285Z,58.1789
2023-03-26T12:55:33.443Z,57.7522
2023-03-26T12:57:37.991Z,59.1560
2023-03-26T12:59:42.148Z,58.2250
2023-03-26T13:00:44.259Z,58.5047
2023-03-26T13:01:46.347Z,58.7035
2023-03-26T13:02:48.611Z,58.8911
2023-03-26T13:03:52.824Z,60.4861
2023-03-26T13:05:05.050Z,62.1183
2023-03-26T13:05:58.580Z,61.1249
2023-03-26T13:07:02.268Z,62.2615
2023-03-26T13:08:04.722Z,64.9095
2023-03-26T13:09:06.922Z,66.0195
2023-03-26T13:10:09.216Z,65.8269
2023-03-26T13:11:11.464Z,65.9328
2023-03-26T13:12:13.758Z,66.0562
2023-03-26T13:13:15.881Z,64.9671
2023-03-26T13:14:18.113Z,65.2515
2023-03-26T13:15:20.326Z,64.9584
2023-03-26T13:16:22.505Z,63.6820
2023-03-26T13:17:24.893Z,64.7585
2023-03-26T13:18:27.038Z,65.5723
2023-03-26T13:19:29.221Z,66.5418
2023-03-26T13:20:31.430Z,66.0359
2023-03-26T13:21:33.630Z,64.7222
2023-03-26T13:22:35.807Z,66.7752
2023-03-26T13:23:37.937Z,64.6895
2023-03-26T13:24:40.233Z,61.6005
2023-03-26T13:25:42.333Z,59.9589
2023-03-26T13:26:44.484Z,58.8841
2023-03-26T13:27:46.586Z,60.4208
2023-03-26T13:30:52.918Z,64.4574
2023-03-26T13:31:55.352Z,65.3859
2023-03-26T13:32:57.573Z,62.9260
2023-03-26T13:33:59.765Z,63.5669
2023-03-26T13:35:01.966Z,65.0712
2023-03-26T13:36:21.768Z,66.9939
2023-03-26T13:37:07.746Z,65.6753
2023-03-26T13:39:12.002Z,62.0795
2023-03-26T13:40:14.193Z,60.6736
2023-03-26T13:42:18.516Z,62.9677
2023-03-26T13:43:20.626Z,59.5401
2023-03-26T13:44:22.806Z,60.1690
2023-03-26T13:45:24.945Z,61.0825